sensor_id;sensor_type;location;lat;lon;timestamp;P1;durP1;ratioP1;P2;durP2;ratioP2
15381;SDS011;7789;51.364;12.358;2022-07-03T00:02:19;3.85;;;1.58;;
15381;SDS011;7789;51.364;12.358;2022-07-03T00:07:25;2.60;;;1.60;;
15381;SDS011;7789;51.364;12.358;2022-07-03T00:12:31;3.40;;;1.60;;
15381;SDS011;7789;51.364;12.358;2022-07-03T00:17:36;2.15;;;1.60;;
15381;SDS011;7789;51.364;12.358;2022-07-03T00:22:44;3.25;;;1.67;;
15381;SDS011;7789;51.364;12.358;2022-07-03T00:28:15;2.03;;;1.52;;
15381;SDS011;7789;51.364;12.358;2022-07-03T00:33:27;1.50;;;1.40;;
15381;SDS011;7789;51.364;12.358;2022-07-03T00:38:40;2.10;;;1.50;;
15381;SDS011;7789;51.364;12.358;2022-07-03T00:43:50;3.80;;;1.50;;
15381;SDS011;7789;51.364;12.358;2022-07-03T00:48:56;2.75;;;1.50;;
15381;SDS011;7789;51.364;12.358;2022-07-03T00:54:03;1.77;;;1.40;;
15381;SDS011;7789;51.364;12.358;2022-07-03T00:59:12;3.20;;;1.60;;
15381;SDS011;7789;51.364;12.358;2022-07-03T01:04:21;2.10;;;1.60;;
15381;SDS011;7789;51.364;12.358;2022-07-03T01:09:43;1.75;;;1.33;;
15381;SDS011;7789;51.364;12.358;2022-07-03T01:15:04;1.50;;;1.40;;
15381;SDS011;7789;51.364;12.358;2022-07-03T01:20:14;1.60;;;1.40;;
15381;SDS011;7789;51.364;12.358;2022-07-03T01:25:25;1.95;;;1.73;;
15381;SDS011;7789;51.364;12.358;2022-07-03T01:30:35;3.72;;;1.88;;
15381;SDS011;7789;51.364;12.358;2022-07-03T01:35:47;4.15;;;1.50;;
15381;SDS011;7789;51.364;12.358;2022-07-03T01:41:01;2.35;;;1.52;;
15381;SDS011;7789;51.364;12.358;2022-07-03T01:46:09;1.77;;;1.60;;
15381;SDS011;7789;51.364;12.358;2022-07-03T01:51:17;1.40;;;1.30;;
15381;SDS011;7789;51.364;12.358;2022-07-03T01:56:27;2.25;;;1.52;;
15381;SDS011;7789;51.364;12.358;2022-07-03T02:01:40;2.20;;;1.65;;
15381;SDS011;7789;51.364;12.358;2022-07-03T02:06:55;4.18;;;1.88;;
15381;SDS011;7789;51.364;12.358;2022-07-03T02:12:11;1.92;;;1.70;;
15381;SDS011;7789;51.364;12.358;2022-07-03T02:17:20;1.80;;;1.65;;
15381;SDS011;7789;51.364;12.358;2022-07-03T02:22:34;2.15;;;1.60;;
15381;SDS011;7789;51.364;12.358;2022-07-03T02:27:41;3.80;;;1.70;;
15381;SDS011;7789;51.364;12.358;2022-07-03T02:32:58;3.03;;;1.60;;
15381;SDS011;7789;51.364;12.358;2022-07-03T02:38:06;1.98;;;1.55;;
15381;SDS011;7789;51.364;12.358;2022-07-03T02:43:15;1.98;;;1.77;;
15381;SDS011;7789;51.364;12.358;2022-07-03T02:48:46;3.08;;;1.85;;
15381;SDS011;7789;51.364;12.358;2022-07-03T02:54:02;1.92;;;1.73;;
15381;SDS011;7789;51.364;12.358;2022-07-03T02:59:17;3.03;;;1.67;;
15381;SDS011;7789;51.364;12.358;2022-07-03T03:04:36;2.78;;;1.90;;
15381;SDS011;7789;51.364;12.358;2022-07-03T03:09:48;4.75;;;1.92;;
15381;SDS011;7789;51.364;12.358;2022-07-03T03:14:54;4.60;;;2.10;;
15381;SDS011;7789;51.364;12.358;2022-07-03T03:20:12;3.55;;;1.80;;
15381;SDS011;7789;51.364;12.358;2022-07-03T03:25:20;2.88;;;2.25;;
15381;SDS011;7789;51.364;12.358;2022-07-03T03:30:27;4.10;;;1.80;;
15381;SDS011;7789;51.364;12.358;2022-07-03T03:35:39;3.78;;;2.20;;
15381;SDS011;7789;51.364;12.358;2022-07-03T03:40:45;2.50;;;1.92;;
15381;SDS011;7789;51.364;12.358;2022-07-03T03:45:58;2.38;;;1.95;;
15381;SDS011;7789;51.364;12.358;2022-07-03T03:51:05;2.85;;;2.20;;
15381;SDS011;7789;51.364;12.358;2022-07-03T03:56:11;2.67;;;2.10;;
15381;SDS011;7789;51.364;12.358;2022-07-03T04:01:29;2.20;;;2.00;;
15381;SDS011;7789;51.364;12.358;2022-07-03T04:06:41;3.53;;;2.08;;
15381;SDS011;7789;51.364;12.358;2022-07-03T04:11:49;3.17;;;2.17;;
15381;SDS011;7789;51.364;12.358;2022-07-03T04:16:55;2.95;;;1.90;;
15381;SDS011;7789;51.364;12.358;2022-07-03T04:22:03;3.42;;;2.00;;
15381;SDS011;7789;51.364;12.358;2022-07-03T04:27:13;2.30;;;1.80;;
15381;SDS011;7789;51.364;12.358;2022-07-03T04:32:41;2.55;;;2.25;;
15381;SDS011;7789;51.364;12.358;2022-07-03T04:37:56;2.28;;;2.08;;
15381;SDS011;7789;51.364;12.358;2022-07-03T04:43:09;2.58;;;2.10;;
15381;SDS011;7789;51.364;12.358;2022-07-03T04:48:16;2.38;;;1.90;;
15381;SDS011;7789;51.364;12.358;2022-07-03T04:59:04;2.47;;;2.17;;
15381;SDS011;7789;51.364;12.358;2022-07-03T05:04:12;2.97;;;1.90;;
15381;SDS011;7789;51.364;12.358;2022-07-03T05:09:24;2.38;;;2.10;;
15381;SDS011;7789;51.364;12.358;2022-07-03T05:14:33;3.67;;;2.08;;
15381;SDS011;7789;51.364;12.358;2022-07-03T05:19:38;3.35;;;2.10;;
15381;SDS011;7789;51.364;12.358;2022-07-03T05:24:46;3.63;;;2.00;;
15381;SDS011;7789;51.364;12.358;2022-07-03T05:29:57;3.60;;;1.90;;
15381;SDS011;7789;51.364;12.358;2022-07-03T05:35:08;2.92;;;1.80;;
15381;SDS011;7789;51.364;12.358;2022-07-03T05:40:36;2.30;;;1.80;;
15381;SDS011;7789;51.364;12.358;2022-07-03T05:45:48;2.38;;;1.63;;
15381;SDS011;7789;51.364;12.358;2022-07-03T05:51:06;3.25;;;2.00;;
15381;SDS011;7789;51.364;12.358;2022-07-03T05:56:16;6.40;;;1.70;;
15381;SDS011;7789;51.364;12.358;2022-07-03T06:01:23;3.50;;;1.50;;
15381;SDS011;7789;51.364;12.358;2022-07-03T06:06:34;1.88;;;1.25;;
15381;SDS011;7789;51.364;12.358;2022-07-03T06:12:06;1.65;;;1.00;;
15381;SDS011;7789;51.364;12.358;2022-07-03T06:17:14;3.42;;;1.35;;
15381;SDS011;7789;51.364;12.358;2022-07-03T06:22:32;1.13;;;1.02;;
15381;SDS011;7789;51.364;12.358;2022-07-03T06:27:38;1.20;;;1.10;;
15381;SDS011;7789;51.364;12.358;2022-07-03T06:32:45;1.38;;;0.95;;
15381;SDS011;7789;51.364;12.358;2022-07-03T06:37:56;2.70;;;1.10;;
15381;SDS011;7789;51.364;12.358;2022-07-03T06:43:12;1.70;;;0.85;;
15381;SDS011;7789;51.364;12.358;2022-07-03T06:48:17;1.23;;;1.00;;
15381;SDS011;7789;51.364;12.358;2022-07-03T06:53:27;3.78;;;1.40;;
15381;SDS011;7789;51.364;12.358;2022-07-03T06:58:33;1.52;;;1.15;;
15381;SDS011;7789;51.364;12.358;2022-07-03T07:09:51;2.97;;;1.10;;
15381;SDS011;7789;51.364;12.358;2022-07-03T07:15:11;3.55;;;1.35;;
15381;SDS011;7789;51.364;12.358;2022-07-03T07:20:19;1.70;;;1.02;;
15381;SDS011;7789;51.364;12.358;2022-07-03T07:25:47;1.92;;;0.90;;
15381;SDS011;7789;51.364;12.358;2022-07-03T07:31:03;2.15;;;1.23;;
15381;SDS011;7789;51.364;12.358;2022-07-03T07:42:08;1.70;;;1.10;;
15381;SDS011;7789;51.364;12.358;2022-07-03T07:47:15;1.13;;;0.93;;
15381;SDS011;7789;51.364;12.358;2022-07-03T07:52:28;1.20;;;1.10;;
15381;SDS011;7789;51.364;12.358;2022-07-03T07:57:52;1.90;;;1.42;;
15381;SDS011;7789;51.364;12.358;2022-07-03T08:03:04;1.20;;;1.10;;
15381;SDS011;7789;51.364;12.358;2022-07-03T08:08:25;3.45;;;1.13;;
15381;SDS011;7789;51.364;12.358;2022-07-03T08:13:29;2.83;;;1.20;;
15381;SDS011;7789;51.364;12.358;2022-07-03T08:18:39;1.83;;;1.10;;
15381;SDS011;7789;51.364;12.358;2022-07-03T08:23:48;1.23;;;1.13;;
15381;SDS011;7789;51.364;12.358;2022-07-03T08:29:10;4.30;;;1.10;;
15381;SDS011;7789;51.364;12.358;2022-07-03T08:34:22;3.50;;;1.08;;
15381;SDS011;7789;51.364;12.358;2022-07-03T08:39:34;2.65;;;1.00;;
15381;SDS011;7789;51.364;12.358;2022-07-03T08:44:41;2.33;;;1.13;;
15381;SDS011;7789;51.364;12.358;2022-07-03T08:49:55;1.40;;;1.10;;
15381;SDS011;7789;51.364;12.358;2022-07-03T08:55:01;3.95;;;1.20;;
15381;SDS011;7789;51.364;12.358;2022-07-03T09:00:09;1.23;;;1.00;;
15381;SDS011;7789;51.364;12.358;2022-07-03T09:05:24;1.17;;;1.08;;
15381;SDS011;7789;51.364;12.358;2022-07-03T09:10:33;3.63;;;1.00;;
15381;SDS011;7789;51.364;12.358;2022-07-03T09:15:41;1.80;;;1.10;;
15381;SDS011;7789;51.364;12.358;2022-07-03T09:21:01;0.98;;;0.88;;
15381;SDS011;7789;51.364;12.358;2022-07-03T09:26:16;1.17;;;1.00;;
15381;SDS011;7789;51.364;12.358;2022-07-03T09:31:31;2.72;;;0.93;;
15381;SDS011;7789;51.364;12.358;2022-07-03T09:36:41;2.05;;;0.90;;
15381;SDS011;7789;51.364;12.358;2022-07-03T09:41:50;1.45;;;1.00;;
15381;SDS011;7789;51.364;12.358;2022-07-03T09:47:11;1.08;;;0.80;;
15381;SDS011;7789;51.364;12.358;2022-07-03T09:52:27;2.65;;;1.10;;
15381;SDS011;7789;51.364;12.358;2022-07-03T09:57:59;1.58;;;0.90;;
15381;SDS011;7789;51.364;12.358;2022-07-03T10:03:08;1.50;;;1.00;;
15381;SDS011;7789;51.364;12.358;2022-07-03T10:08:18;1.08;;;0.98;;
15381;SDS011;7789;51.364;12.358;2022-07-03T10:13:29;2.97;;;0.90;;
15381;SDS011;7789;51.364;12.358;2022-07-03T10:18:44;1.52;;;1.10;;
15381;SDS011;7789;51.364;12.358;2022-07-03T10:24:01;1.60;;;0.90;;
15381;SDS011;7789;51.364;12.358;2022-07-03T10:29:11;1.17;;;0.90;;
15381;SDS011;7789;51.364;12.358;2022-07-03T10:34:26;2.20;;;0.85;;
15381;SDS011;7789;51.364;12.358;2022-07-03T10:39:40;0.85;;;0.80;;
15381;SDS011;7789;51.364;12.358;2022-07-03T10:45:22;3.08;;;0.80;;
15381;SDS011;7789;51.364;12.358;2022-07-03T10:50:28;3.47;;;0.80;;
15381;SDS011;7789;51.364;12.358;2022-07-03T10:55:47;1.50;;;0.80;;
15381;SDS011;7789;51.364;12.358;2022-07-03T11:01:10;1.42;;;0.98;;
15381;SDS011;7789;51.364;12.358;2022-07-03T11:12:16;1.73;;;0.63;;
15381;SDS011;7789;51.364;12.358;2022-07-03T11:18:09;1.83;;;0.80;;
15381;SDS011;7789;51.364;12.358;2022-07-03T11:23:28;2.67;;;0.80;;
15381;SDS011;7789;51.364;12.358;2022-07-03T11:29:06;0.70;;;0.70;;
15381;SDS011;7789;51.364;12.358;2022-07-03T11:34:40;0.80;;;0.80;;
15381;SDS011;7789;51.364;12.358;2022-07-03T11:39:49;1.95;;;0.90;;
15381;SDS011;7789;51.364;12.358;2022-07-03T11:45:10;1.67;;;0.88;;
15381;SDS011;7789;51.364;12.358;2022-07-03T11:50:16;2.15;;;0.68;;
15381;SDS011;7789;51.364;12.358;2022-07-03T11:55:30;4.03;;;1.10;;
15381;SDS011;7789;51.364;12.358;2022-07-03T12:00:48;0.80;;;0.77;;
15381;SDS011;7789;51.364;12.358;2022-07-03T12:05:55;1.00;;;0.63;;
15381;SDS011;7789;51.364;12.358;2022-07-03T12:11:08;1.15;;;0.68;;
15381;SDS011;7789;51.364;12.358;2022-07-03T12:16:19;0.85;;;0.65;;
15381;SDS011;7789;51.364;12.358;2022-07-03T12:21:37;1.40;;;0.77;;
15381;SDS011;7789;51.364;12.358;2022-07-03T12:26:47;2.15;;;0.80;;
15381;SDS011;7789;51.364;12.358;2022-07-03T12:32:00;1.10;;;0.60;;
15381;SDS011;7789;51.364;12.358;2022-07-03T12:37:14;1.88;;;0.60;;
15381;SDS011;7789;51.364;12.358;2022-07-03T12:42:42;2.78;;;0.52;;
15381;SDS011;7789;51.364;12.358;2022-07-03T12:48:00;0.60;;;0.60;;
15381;SDS011;7789;51.364;12.358;2022-07-03T12:53:26;0.95;;;0.88;;
15381;SDS011;7789;51.364;12.358;2022-07-03T12:58:46;0.75;;;0.60;;
15381;SDS011;7789;51.364;12.358;2022-07-03T13:04:10;2.65;;;0.80;;
15381;SDS011;7789;51.364;12.358;2022-07-03T13:09:24;1.25;;;0.70;;
15381;SDS011;7789;51.364;12.358;2022-07-03T13:14:40;1.42;;;0.68;;
15381;SDS011;7789;51.364;12.358;2022-07-03T13:19:59;0.57;;;0.47;;
15381;SDS011;7789;51.364;12.358;2022-07-03T13:25:20;0.93;;;0.77;;
15381;SDS011;7789;51.364;12.358;2022-07-03T13:30:25;1.38;;;0.60;;
15381;SDS011;7789;51.364;12.358;2022-07-03T13:40:56;1.35;;;0.70;;
15381;SDS011;7789;51.364;12.358;2022-07-03T13:46:04;0.82;;;0.70;;
15381;SDS011;7789;51.364;12.358;2022-07-03T13:51:28;0.88;;;0.68;;
15381;SDS011;7789;51.364;12.358;2022-07-03T13:56:32;1.05;;;0.70;;
15381;SDS011;7789;51.364;12.358;2022-07-03T14:01:38;2.15;;;0.60;;
15381;SDS011;7789;51.364;12.358;2022-07-03T14:07:13;0.90;;;0.70;;
15381;SDS011;7789;51.364;12.358;2022-07-03T14:12:20;0.77;;;0.60;;
15381;SDS011;7789;51.364;12.358;2022-07-03T14:17:26;0.60;;;0.60;;
15381;SDS011;7789;51.364;12.358;2022-07-03T14:22:33;1.25;;;1.00;;
15381;SDS011;7789;51.364;12.358;2022-07-03T14:27:39;3.22;;;0.70;;
15381;SDS011;7789;51.364;12.358;2022-07-03T14:33:01;0.73;;;0.70;;
15381;SDS011;7789;51.364;12.358;2022-07-03T14:38:08;1.30;;;0.70;;
15381;SDS011;7789;51.364;12.358;2022-07-03T14:43:22;1.33;;;0.88;;
15381;SDS011;7789;51.364;12.358;2022-07-03T14:48:29;1.65;;;0.60;;
15381;SDS011;7789;51.364;12.358;2022-07-03T14:53:36;1.25;;;0.70;;
15381;SDS011;7789;51.364;12.358;2022-07-03T14:58:44;2.28;;;0.85;;
15381;SDS011;7789;51.364;12.358;2022-07-03T15:03:51;6.40;;;5.10;;
15381;SDS011;7789;51.364;12.358;2022-07-03T15:09:08;1.08;;;0.88;;
15381;SDS011;7789;51.364;12.358;2022-07-03T15:14:29;1.88;;;0.95;;
15381;SDS011;7789;51.364;12.358;2022-07-03T15:19:41;1.80;;;0.80;;
15381;SDS011;7789;51.364;12.358;2022-07-03T15:24:58;1.50;;;1.13;;
15381;SDS011;7789;51.364;12.358;2022-07-03T15:30:12;1.38;;;0.63;;
15381;SDS011;7789;51.364;12.358;2022-07-03T15:35:19;0.52;;;0.52;;
15381;SDS011;7789;51.364;12.358;2022-07-03T15:40:31;2.63;;;0.80;;
15381;SDS011;7789;51.364;12.358;2022-07-03T15:45:42;1.35;;;1.25;;
15381;SDS011;7789;51.364;12.358;2022-07-03T15:50:57;2.17;;;1.30;;
15381;SDS011;7789;51.364;12.358;2022-07-03T16:01:51;5.55;;;2.10;;
15381;SDS011;7789;51.364;12.358;2022-07-03T16:07:42;1.80;;;0.80;;
15381;SDS011;7789;51.364;12.358;2022-07-03T16:18:51;3.03;;;1.38;;
15381;SDS011;7789;51.364;12.358;2022-07-03T16:23:59;1.08;;;0.95;;
15381;SDS011;7789;51.364;12.358;2022-07-03T16:34:44;1.45;;;0.90;;
15381;SDS011;7789;51.364;12.358;2022-07-03T16:40:12;1.40;;;1.10;;
15381;SDS011;7789;51.364;12.358;2022-07-03T16:45:29;3.78;;;1.20;;
15381;SDS011;7789;51.364;12.358;2022-07-03T16:50:54;0.98;;;0.73;;
15381;SDS011;7789;51.364;12.358;2022-07-03T16:56:30;1.60;;;0.70;;
15381;SDS011;7789;51.364;12.358;2022-07-03T17:01:57;0.88;;;0.73;;
15381;SDS011;7789;51.364;12.358;2022-07-03T17:07:11;1.20;;;0.95;;
15381;SDS011;7789;51.364;12.358;2022-07-03T17:12:36;1.73;;;0.90;;
15381;SDS011;7789;51.364;12.358;2022-07-03T17:17:58;2.17;;;0.65;;
15381;SDS011;7789;51.364;12.358;2022-07-03T17:29:12;2.58;;;2.33;;
15381;SDS011;7789;51.364;12.358;2022-07-03T17:34:34;3.92;;;2.13;;
15381;SDS011;7789;51.364;12.358;2022-07-03T17:39:51;1.73;;;1.63;;
15381;SDS011;7789;51.364;12.358;2022-07-03T17:45:14;2.63;;;1.70;;
15381;SDS011;7789;51.364;12.358;2022-07-03T17:50:35;2.13;;;1.40;;
15381;SDS011;7789;51.364;12.358;2022-07-03T17:56:03;1.50;;;1.30;;
15381;SDS011;7789;51.364;12.358;2022-07-03T18:01:30;1.20;;;1.10;;
15381;SDS011;7789;51.364;12.358;2022-07-03T18:06:50;3.08;;;1.20;;
15381;SDS011;7789;51.364;12.358;2022-07-03T18:12:00;1.30;;;1.20;;
15381;SDS011;7789;51.364;12.358;2022-07-03T18:17:16;2.25;;;1.30;;
15381;SDS011;7789;51.364;12.358;2022-07-03T18:22:32;2.65;;;1.50;;
15381;SDS011;7789;51.364;12.358;2022-07-03T18:27:43;3.90;;;1.48;;
15381;SDS011;7789;51.364;12.358;2022-07-03T18:32:52;1.38;;;1.25;;
15381;SDS011;7789;51.364;12.358;2022-07-03T18:38:04;2.22;;;1.55;;
15381;SDS011;7789;51.364;12.358;2022-07-03T18:43:21;2.80;;;1.90;;
15381;SDS011;7789;51.364;12.358;2022-07-03T18:48:39;2.50;;;1.40;;
15381;SDS011;7789;51.364;12.358;2022-07-03T18:53:47;3.05;;;1.85;;
15381;SDS011;7789;51.364;12.358;2022-07-03T18:59:06;2.80;;;2.55;;
15381;SDS011;7789;51.364;12.358;2022-07-03T19:04:23;3.22;;;1.95;;
15381;SDS011;7789;51.364;12.358;2022-07-03T19:09:42;4.57;;;2.22;;
15381;SDS011;7789;51.364;12.358;2022-07-03T19:15:03;2.83;;;1.88;;
15381;SDS011;7789;51.364;12.358;2022-07-03T19:20:11;3.35;;;1.85;;
15381;SDS011;7789;51.364;12.358;2022-07-03T19:25:22;3.97;;;3.67;;
15381;SDS011;7789;51.364;12.358;2022-07-03T19:30:35;5.25;;;2.42;;
15381;SDS011;7789;51.364;12.358;2022-07-03T19:35:40;2.08;;;1.60;;
15381;SDS011;7789;51.364;12.358;2022-07-03T19:40:53;3.85;;;2.03;;
15381;SDS011;7789;51.364;12.358;2022-07-03T19:46:08;3.28;;;1.50;;
15381;SDS011;7789;51.364;12.358;2022-07-03T19:51:15;3.05;;;1.70;;
15381;SDS011;7789;51.364;12.358;2022-07-03T19:56:27;2.90;;;1.85;;
15381;SDS011;7789;51.364;12.358;2022-07-03T20:01:39;4.45;;;1.85;;
15381;SDS011;7789;51.364;12.358;2022-07-03T20:07:11;4.55;;;2.20;;
15381;SDS011;7789;51.364;12.358;2022-07-03T20:12:20;3.83;;;2.17;;
15381;SDS011;7789;51.364;12.358;2022-07-03T20:17:27;7.53;;;5.20;;
15381;SDS011;7789;51.364;12.358;2022-07-03T20:22:38;6.28;;;4.47;;
15381;SDS011;7789;51.364;12.358;2022-07-03T20:27:55;2.83;;;2.45;;
15381;SDS011;7789;51.364;12.358;2022-07-03T20:33:02;3.95;;;2.08;;
15381;SDS011;7789;51.364;12.358;2022-07-03T20:38:11;5.88;;;2.97;;
15381;SDS011;7789;51.364;12.358;2022-07-03T20:43:23;2.83;;;2.50;;
15381;SDS011;7789;51.364;12.358;2022-07-03T20:48:38;4.18;;;2.70;;
15381;SDS011;7789;51.364;12.358;2022-07-03T20:53:44;4.90;;;2.88;;
15381;SDS011;7789;51.364;12.358;2022-07-03T20:58:56;2.90;;;2.60;;
15381;SDS011;7789;51.364;12.358;2022-07-03T21:04:13;3.15;;;2.58;;
15381;SDS011;7789;51.364;12.358;2022-07-03T21:09:28;8.88;;;2.88;;
15381;SDS011;7789;51.364;12.358;2022-07-03T21:14:36;2.22;;;1.70;;
15381;SDS011;7789;51.364;12.358;2022-07-03T21:19:56;4.30;;;1.42;;
15381;SDS011;7789;51.364;12.358;2022-07-03T21:25:03;0.90;;;0.68;;
15381;SDS011;7789;51.364;12.358;2022-07-03T21:30:32;1.10;;;1.00;;
15381;SDS011;7789;51.364;12.358;2022-07-03T21:35:41;1.30;;;1.00;;
15381;SDS011;7789;51.364;12.358;2022-07-03T21:40:54;4.00;;;0.73;;
15381;SDS011;7789;51.364;12.358;2022-07-03T21:46:02;2.03;;;0.80;;
15381;SDS011;7789;51.364;12.358;2022-07-03T21:51:12;2.13;;;0.85;;
15381;SDS011;7789;51.364;12.358;2022-07-03T21:56:26;1.23;;;0.65;;
15381;SDS011;7789;51.364;12.358;2022-07-03T22:01:42;1.27;;;0.80;;
15381;SDS011;7789;51.364;12.358;2022-07-03T22:06:50;1.13;;;0.82;;
15381;SDS011;7789;51.364;12.358;2022-07-03T22:12:21;2.60;;;0.80;;
15381;SDS011;7789;51.364;12.358;2022-07-03T22:17:53;2.63;;;0.70;;
15381;SDS011;7789;51.364;12.358;2022-07-03T22:23:00;2.58;;;0.75;;
15381;SDS011;7789;51.364;12.358;2022-07-03T22:28:17;1.67;;;0.85;;
15381;SDS011;7789;51.364;12.358;2022-07-03T22:33:32;3.33;;;0.80;;
15381;SDS011;7789;51.364;12.358;2022-07-03T22:38:40;4.95;;;0.68;;
15381;SDS011;7789;51.364;12.358;2022-07-03T22:43:46;1.67;;;0.70;;
15381;SDS011;7789;51.364;12.358;2022-07-03T22:48:54;1.88;;;0.90;;
15381;SDS011;7789;51.364;12.358;2022-07-03T22:54:01;1.33;;;0.90;;
15381;SDS011;7789;51.364;12.358;2022-07-03T22:59:12;2.78;;;1.00;;
15381;SDS011;7789;51.364;12.358;2022-07-03T23:09:49;3.58;;;1.08;;
15381;SDS011;7789;51.364;12.358;2022-07-03T23:14:55;1.00;;;0.80;;
15381;SDS011;7789;51.364;12.358;2022-07-03T23:20:25;3.95;;;0.88;;
15381;SDS011;7789;51.364;12.358;2022-07-03T23:25:32;3.70;;;0.85;;
15381;SDS011;7789;51.364;12.358;2022-07-03T23:30:50;4.63;;;0.98;;
15381;SDS011;7789;51.364;12.358;2022-07-03T23:36:16;3.40;;;0.70;;
15381;SDS011;7789;51.364;12.358;2022-07-03T23:41:25;2.80;;;1.00;;
15381;SDS011;7789;51.364;12.358;2022-07-03T23:46:51;6.03;;;1.00;;
15381;SDS011;7789;51.364;12.358;2022-07-03T23:51:58;4.63;;;1.10;;
15381;SDS011;7789;51.364;12.358;2022-07-03T23:57:13;1.40;;;0.80;;
